Time;durP1;ratioP1;P1;durP2;ratioP2;P2;SDS_P1;SDS_P2;PMS_P1;PMS_P2;Temp;Humidity;BMP_temperature;BMP_pressure;BME280_temperature;BME280_humidity;BME280_pressure;Samples;Min_cycle;Max_cycle;Signal;HPM_P1;HPM_P2
2021/10/30 00:02:02;;;;;;;58.67;3.00;;;5.50;1.00;;;;;;5091668;28;20211;-64
2021/10/30 00:04:29;;;;;;;59.13;3.33;;;5.50;1.00;;;;;;5091449;28;20238;-64
2021/10/30 00:06:59;;;;;;;59.20;3.30;;;5.40;1.00;;;;;;5091185;28;20208;-65
2021/10/30 00:09:26;;;;;;;58.53;3.00;;;5.40;1.00;;;;;;5092043;28;20273;-64
2021/10/30 00:11:54;;;;;;;58.70;3.00;;;5.30;1.00;;;;;;5091441;28;20214;-64
2021/10/30 00:14:21;;;;;;;58.60;2.80;;;5.30;1.00;;;;;;5091686;28;20235;-64
2021/10/30 00:16:48;;;;;;;58.60;2.90;;;5.20;1.00;;;;;;5091240;28;20250;-64
2021/10/30 00:19:15;;;;;;;58.70;2.90;;;5.10;1.00;;;;;;5091590;28;20208;-64
2021/10/30 00:21:41;;;;;;;59.67;3.50;;;5.00;1.00;;;;;;5091635;28;20230;-65
2021/10/30 00:24:08;;;;;;;58.88;3.17;;;5.00;1.00;;;;;;5091760;28;20242;-65
2021/10/30 00:26:35;;;;;;;58.70;2.90;;;5.00;1.00;;;;;;5090548;28;20316;-65
2021/10/30 00:29:03;;;;;;;58.58;3.05;;;5.00;1.00;;;;;;5091644;28;20294;-65
2021/10/30 00:31:30;;;;;;;59.38;3.20;;;5.00;1.00;;;;;;5091247;28;20783;-65
2021/10/30 00:33:57;;;;;;;58.78;3.22;;;5.00;1.00;;;;;;5093084;28;20214;-65
2021/10/30 00:36:24;;;;;;;58.88;3.35;;;5.10;1.00;;;;;;5095203;28;20236;-65
2021/10/30 00:38:51;;;;;;;58.72;3.00;;;5.10;1.00;;;;;;5095740;28;20670;-65
2021/10/30 00:41:18;;;;;;;59.20;3.30;;;5.10;1.00;;;;;;5095296;28;20311;-65
2021/10/30 00:43:45;;;;;;;58.65;3.20;;;5.20;1.00;;;;;;5095120;28;20208;-65
2021/10/30 00:46:13;;;;;;;58.95;3.15;;;5.10;1.00;;;;;;5095317;28;20321;-65
2021/10/30 00:48:40;;;;;;;58.95;3.25;;;5.10;1.00;;;;;;5095320;28;20210;-64
2021/10/30 00:51:08;;;;;;;58.67;3.50;;;5.10;1.00;;;;;;5095462;28;20220;-64
2021/10/30 00:53:35;;;;;;;58.78;3.30;;;5.20;1.00;;;;;;5095293;28;20295;-64
2021/10/30 00:56:05;;;;;;;58.67;3.25;;;5.10;1.00;;;;;;5095159;28;20238;-64
2021/10/30 00:58:35;;;;;;;58.90;3.20;;;5.10;1.00;;;;;;5094988;28;20632;-64
2021/10/30 01:01:03;;;;;;;58.75;2.92;;;5.00;1.00;;;;;;5095167;28;20596;-64
2021/10/30 01:03:33;;;;;;;58.78;3.35;;;5.00;1.00;;;;;;5095093;28;20299;-65
2021/10/30 01:06:00;;;;;;;58.70;2.85;;;5.00;1.00;;;;;;5094970;28;20200;-64
2021/10/30 01:08:27;;;;;;;58.50;2.90;;;5.00;1.00;;;;;;5095243;28;20585;-64
2021/10/30 01:10:54;;;;;;;58.78;3.10;;;4.90;1.00;;;;;;5095068;28;20327;-64
2021/10/30 01:13:23;;;;;;;58.67;3.00;;;4.90;1.00;;;;;;5094830;28;20291;-64
2021/10/30 01:15:50;;;;;;;58.70;2.88;;;4.90;1.00;;;;;;5094846;28;20222;-64
2021/10/30 01:18:16;;;;;;;58.80;2.90;;;4.90;1.00;;;;;;5094849;28;20312;-64
2021/10/30 01:20:45;;;;;;;58.97;3.20;;;4.90;1.00;;;;;;5094934;28;20672;-64
2021/10/30 01:23:12;;;;;;;58.78;3.30;;;4.90;1.00;;;;;;5094788;28;20714;-64
2021/10/30 01:25:39;;;;;;;58.47;3.08;;;4.90;1.00;;;;;;5094118;28;20749;-64
2021/10/30 01:28:06;;;;;;;58.58;3.00;;;4.80;1.00;;;;;;5094300;28;20208;-64
2021/10/30 01:30:33;;;;;;;58.58;3.05;;;4.80;1.00;;;;;;5094826;28;20312;-64
2021/10/30 01:33:02;;;;;;;58.75;3.00;;;4.70;1.00;;;;;;5092604;28;20236;-64
2021/10/30 01:35:31;;;;;;;58.65;2.90;;;4.60;1.00;;;;;;5094705;28;20287;-65
2021/10/30 01:38:00;;;;;;;58.67;3.00;;;4.50;1.00;;;;;;5094495;28;20204;-64
2021/10/30 01:40:27;;;;;;;58.70;2.95;;;4.50;1.00;;;;;;5094560;28;20235;-64
2021/10/30 01:42:55;;;;;;;58.38;2.80;;;4.50;1.00;;;;;;5094020;28;20230;-64
2021/10/30 01:45:22;;;;;;;58.67;2.90;;;4.40;1.00;;;;;;5093394;28;20208;-64
2021/10/30 01:47:48;;;;;;;58.65;3.00;;;4.40;1.00;;;;;;5093421;28;20323;-64
2021/10/30 01:50:16;;;;;;;58.78;3.00;;;4.40;1.00;;;;;;5094316;28;20311;-64
2021/10/30 01:52:43;;;;;;;58.70;2.80;;;4.40;1.00;;;;;;5094244;28;20295;-64
2021/10/30 01:55:11;;;;;;;58.85;3.25;;;4.40;1.00;;;;;;5094159;28;20210;-64
2021/10/30 01:57:39;;;;;;;58.88;2.97;;;4.40;1.00;;;;;;5094011;28;20204;-64
2021/10/30 02:00:08;;;;;;;61.05;3.30;;;4.40;1.00;;;;;;5094075;28;20231;-64
2021/10/30 02:02:35;;;;;;;58.65;3.00;;;4.40;1.00;;;;;;5094080;28;20215;-64
2021/10/30 02:05:02;;;;;;;58.75;3.00;;;4.40;1.00;;;;;;5094065;28;20291;-64
2021/10/30 02:07:29;;;;;;;58.67;2.70;;;4.40;1.00;;;;;;5093734;28;20668;-64
2021/10/30 02:09:56;;;;;;;58.85;3.10;;;4.40;1.00;;;;;;5093984;28;20657;-64
2021/10/30 02:12:24;;;;;;;58.88;3.40;;;4.40;1.00;;;;;;5093997;28;20226;-64
2021/10/30 02:14:51;;;;;;;58.80;3.00;;;4.30;1.00;;;;;;5093813;28;20240;-64
2021/10/30 02:17:18;;;;;;;58.58;2.95;;;4.30;1.00;;;;;;5093587;28;20610;-65
2021/10/30 02:19:45;;;;;;;58.67;3.00;;;4.40;1.00;;;;;;5091923;28;20228;-64
2021/10/30 02:22:11;;;;;;;58.67;2.95;;;4.40;1.00;;;;;;5093534;28;20714;-64
2021/10/30 02:24:38;;;;;;;58.80;3.10;;;4.40;1.00;;;;;;5093854;28;20204;-64
2021/10/30 02:27:06;;;;;;;58.70;3.13;;;4.40;1.00;;;;;;5093090;28;20299;-64
2021/10/30 02:29:34;;;;;;;58.88;3.17;;;4.30;1.00;;;;;;5092746;28;20224;-64
2021/10/30 02:32:02;;;;;;;58.67;3.00;;;4.30;1.00;;;;;;5093329;28;20196;-64
2021/10/30 02:34:29;;;;;;;58.33;3.10;;;4.30;1.00;;;;;;5093265;28;20228;-65
2021/10/30 02:36:56;;;;;;;58.67;3.25;;;4.30;1.00;;;;;;5093244;28;20262;-64
2021/10/30 02:39:23;;;;;;;58.67;3.05;;;4.30;1.00;;;;;;5093188;28;20235;-64
2021/10/30 02:41:50;;;;;;;58.95;3.42;;;4.20;1.00;;;;;;5093241;28;20202;-64
2021/10/30 02:44:17;;;;;;;58.58;2.97;;;4.20;1.00;;;;;;5093252;28;20680;-64
2021/10/30 02:46:46;;;;;;;58.55;3.03;;;4.20;1.00;;;;;;5093102;28;21091;-65
2021/10/30 02:49:12;;;;;;;58.67;3.25;;;4.10;1.00;;;;;;5092888;28;20220;-64
2021/10/30 02:51:39;;;;;;;58.78;2.95;;;4.10;1.00;;;;;;5093324;28;20319;-64
2021/10/30 02:54:06;;;;;;;58.92;3.55;;;4.00;1.00;;;;;;5092935;28;20684;-64
2021/10/30 02:56:33;;;;;;;58.55;2.97;;;4.00;1.00;;;;;;5092759;28;20208;-64
2021/10/30 02:59:00;;;;;;;58.97;3.30;;;3.90;1.00;;;;;;5092210;28;20235;-64
2021/10/30 03:01:26;;;;;;;58.67;3.17;;;3.90;1.00;;;;;;5092494;28;20208;-64
2021/10/30 03:03:55;;;;;;;59.58;3.30;;;3.90;1.00;;;;;;5092715;28;20326;-64
2021/10/30 03:06:22;;;;;;;58.67;3.10;;;3.90;1.00;;;;;;5092829;28;20299;-65
2021/10/30 03:08:50;;;;;;;58.78;3.70;;;3.90;1.00;;;;;;5092980;28;20208;-64
2021/10/30 03:11:17;;;;;;;58.78;3.30;;;4.00;1.00;;;;;;5092510;28;20694;-64
2021/10/30 03:13:44;;;;;;;58.67;3.13;;;4.00;1.00;;;;;;5092687;28;20204;-64
2021/10/30 03:16:11;;;;;;;59.20;3.88;;;4.00;1.00;;;;;;5092509;28;20303;-64
2021/10/30 03:18:39;;;;;;;58.60;3.00;;;4.00;1.00;;;;;;5092930;28;20239;-64
2021/10/30 03:21:07;;;;;;;58.80;3.10;;;4.10;1.00;;;;;;5092697;28;20289;-64
2021/10/30 03:23:34;;;;;;;58.55;2.90;;;4.10;1.00;;;;;;5092523;28;20299;-64
2021/10/30 03:26:01;;;;;;;59.22;3.90;;;4.00;1.00;;;;;;5091969;28;20731;-64
2021/10/30 03:28:28;;;;;;;59.78;3.95;;;4.10;1.00;;;;;;5091987;28;20204;-64
2021/10/30 03:30:54;;;;;;;58.58;3.22;;;4.00;1.00;;;;;;5091655;28;20271;-64
2021/10/30 03:33:21;;;;;;;58.65;3.17;;;3.90;1.00;;;;;;5092116;28;20311;-64
2021/10/30 03:35:48;;;;;;;59.60;4.93;;;3.90;1.00;;;;;;5092041;28;20298;-64
2021/10/30 03:38:17;;;;;;;58.65;2.95;;;3.80;1.00;;;;;;5092072;28;20295;-64
2021/10/30 03:40:43;;;;;;;58.88;2.88;;;3.80;1.00;;;;;;5092212;28;20220;-64
2021/10/30 03:43:11;;;;;;;58.70;3.15;;;3.70;1.00;;;;;;5091828;28;20214;-64
2021/10/30 03:45:38;;;;;;;58.63;3.10;;;3.70;1.00;;;;;;5091891;28;20208;-64
2021/10/30 03:48:05;;;;;;;58.70;3.05;;;3.70;1.00;;;;;;5092613;28;20300;-64
2021/10/30 03:50:32;;;;;;;58.65;2.88;;;3.60;1.00;;;;;;5092213;28;20220;-64
2021/10/30 03:52:59;;;;;;;58.75;3.17;;;3.60;1.00;;;;;;5092192;28;20776;-64
2021/10/30 03:55:27;;;;;;;59.47;4.43;;;3.50;1.00;;;;;;5091769;28;20208;-64
2021/10/30 03:57:54;;;;;;;58.58;3.10;;;3.50;1.00;;;;;;5091578;28;20265;-64
2021/10/30 04:00:21;;;;;;;58.88;3.50;;;3.40;1.00;;;;;;5092001;28;20286;-64
2021/10/30 04:02:48;;;;;;;58.67;3.20;;;3.40;1.00;;;;;;5092228;28;20283;-64
2021/10/30 04:05:15;;;;;;;58.88;3.90;;;3.40;1.00;;;;;;5091980;28;20209;-64
2021/10/30 04:07:42;;;;;;;58.88;3.40;;;3.50;1.00;;;;;;5091638;28;20205;-64
2021/10/30 04:10:10;;;;;;;59.28;3.70;;;3.40;1.00;;;;;;5091593;28;20230;-64
2021/10/30 04:12:38;;;;;;;58.92;3.42;;;3.40;1.00;;;;;;5091701;28;20259;-64
2021/10/30 04:15:06;;;;;;;58.67;3.10;;;3.30;1.00;;;;;;5091992;28;20590;-64
2021/10/30 04:17:33;;;;;;;58.80;3.40;;;3.30;1.00;;;;;;5091217;28;20288;-64
2021/10/30 04:20:00;;;;;;;58.67;3.28;;;3.30;1.00;;;;;;5091760;28;20224;-64
2021/10/30 04:22:26;;;;;;;58.80;3.70;;;3.20;1.00;;;;;;5091936;28;20200;-64
2021/10/30 04:24:54;;;;;;;58.70;3.30;;;3.20;1.00;;;;;;5091835;28;20687;-64
2021/10/30 04:27:21;;;;;;;58.83;3.22;;;3.20;1.00;;;;;;5091866;28;20261;-64
2021/10/30 04:29:50;;;;;;;58.47;3.10;;;3.20;1.00;;;;;;5091836;28;20260;-64
2021/10/30 04:32:17;;;;;;;58.58;3.00;;;3.20;1.00;;;;;;5091899;28;20228;-64
2021/10/30 04:34:46;;;;;;;58.58;2.97;;;3.30;1.00;;;;;;5091883;28;20208;-64
2021/10/30 04:37:16;;;;;;;58.67;3.10;;;3.30;1.00;;;;;;5091526;28;20208;-64
2021/10/30 04:39:44;;;;;;;58.65;3.13;;;3.30;1.00;;;;;;5092003;28;20596;-64
2021/10/30 04:42:11;;;;;;;58.67;3.22;;;3.30;1.00;;;;;;5091658;28;20741;-64
2021/10/30 04:44:37;;;;;;;58.58;2.97;;;3.30;1.00;;;;;;5091651;28;20240;-64
2021/10/30 04:47:06;;;;;;;58.45;3.10;;;3.30;1.00;;;;;;5091460;28;20206;-64
2021/10/30 04:49:34;;;;;;;58.58;3.15;;;3.30;1.00;;;;;;5091568;28;20257;-64
2021/10/30 04:52:01;;;;;;;58.42;3.08;;;3.30;1.00;;;;;;5091468;28;20755;-64
2021/10/30 04:54:28;;;;;;;58.47;3.10;;;3.20;1.00;;;;;;5091790;28;20246;-64
2021/10/30 04:56:55;;;;;;;58.80;3.20;;;3.20;1.00;;;;;;5091192;28;20684;-64
2021/10/30 04:59:22;;;;;;;58.97;3.25;;;3.20;1.00;;;;;;5091431;28;20200;-64
2021/10/30 05:01:49;;;;;;;58.95;3.40;;;3.20;1.00;;;;;;5091551;28;20676;-64
2021/10/30 05:04:17;;;;;;;59.58;3.85;;;3.20;1.00;;;;;;5091584;28;20210;-64
2021/10/30 05:06:44;;;;;;;58.67;3.10;;;3.10;1.00;;;;;;5091122;28;20337;-64
2021/10/30 05:09:11;;;;;;;58.65;3.03;;;3.10;1.00;;;;;;5091365;28;20208;-64
2021/10/30 05:11:38;;;;;;;58.53;3.10;;;3.10;1.00;;;;;;5091329;28;20262;-64
2021/10/30 05:14:04;;;;;;;58.65;2.95;;;3.10;1.00;;;;;;5091554;28;20200;-64
2021/10/30 05:16:31;;;;;;;58.78;3.25;;;3.10;1.00;;;;;;5091208;28;20200;-64
2021/10/30 05:18:58;;;;;;;58.45;3.00;;;3.10;1.00;;;;;;5091286;28;20212;-64
2021/10/30 05:21:27;;;;;;;58.80;3.50;;;3.20;1.00;;;;;;5093630;28;20247;-64
2021/10/30 05:23:56;;;;;;;58.67;2.97;;;3.20;1.00;;;;;;5095220;28;20204;-64
2021/10/30 05:26:23;;;;;;;58.75;3.15;;;3.20;1.00;;;;;;5094582;28;20204;-64
2021/10/30 05:28:50;;;;;;;58.67;3.20;;;3.20;1.00;;;;;;5094912;28;20775;-64
2021/10/30 05:31:17;;;;;;;58.47;3.20;;;3.20;1.00;;;;;;5094752;28;20260;-64
2021/10/30 05:33:43;;;;;;;58.90;2.90;;;3.10;1.00;;;;;;5094711;28;20295;-64
2021/10/30 05:36:12;;;;;;;59.22;3.78;;;3.10;1.00;;;;;;5094447;28;20663;-64
2021/10/30 05:38:44;;;;;;;58.70;3.20;;;3.00;1.00;;;;;;5094898;28;20209;-64
2021/10/30 05:41:12;;;;;;;60.15;3.35;;;3.00;1.00;;;;;;5094704;28;20223;-64
2021/10/30 05:43:39;;;;;;;58.58;3.20;;;2.90;1.00;;;;;;5094651;28;20669;-64
2021/10/30 05:46:07;;;;;;;59.00;3.60;;;2.90;1.00;;;;;;5094201;28;20216;-64
2021/10/30 05:48:35;;;;;;;59.20;3.60;;;3.00;1.00;;;;;;5094775;28;20208;-64
2021/10/30 05:51:02;;;;;;;58.97;3.20;;;2.90;1.00;;;;;;5094830;28;20677;-64
2021/10/30 05:53:29;;;;;;;58.60;3.00;;;2.90;1.00;;;;;;5094513;28;20238;-64
2021/10/30 05:55:57;;;;;;;58.80;3.30;;;2.90;1.00;;;;;;5093943;28;20247;-64
2021/10/30 05:58:24;;;;;;;58.75;2.90;;;2.80;1.00;;;;;;5094397;28;20286;-64
2021/10/30 06:00:51;;;;;;;58.83;3.10;;;2.70;1.00;;;;;;5094010;28;20293;-64
2021/10/30 06:03:18;;;;;;;58.45;3.08;;;2.70;1.00;;;;;;5094242;28;20291;-64
2021/10/30 06:05:44;;;;;;;58.55;3.00;;;2.70;1.00;;;;;;5093991;28;20295;-64
2021/10/30 06:08:11;;;;;;;58.75;3.40;;;2.60;1.00;;;;;;5094293;28;20270;-64
2021/10/30 06:10:38;;;;;;;58.80;3.47;;;2.60;1.00;;;;;;5094090;28;20658;-64
2021/10/30 06:13:06;;;;;;;58.50;3.10;;;2.60;1.00;;;;;;5094018;28;20246;-64
2021/10/30 06:15:33;;;;;;;58.58;3.17;;;2.70;1.00;;;;;;5093613;28;20299;-64
2021/10/30 06:18:00;;;;;;;58.80;3.25;;;2.70;1.00;;;;;;5094166;28;20200;-64
2021/10/30 06:20:27;;;;;;;58.78;3.40;;;2.70;1.00;;;;;;5094037;28;20651;-64
2021/10/30 06:22:54;;;;;;;58.65;3.22;;;2.70;1.00;;;;;;5093865;28;20200;-64
2021/10/30 06:25:21;;;;;;;58.58;3.20;;;2.70;1.00;;;;;;5093596;28;20242;-64
2021/10/30 06:27:47;;;;;;;59.08;3.28;;;2.80;1.00;;;;;;5093993;28;20291;-64
2021/10/30 06:30:16;;;;;;;58.58;3.15;;;2.80;1.00;;;;;;5093996;28;20295;-64
2021/10/30 06:32:43;;;;;;;58.67;2.97;;;2.70;1.00;;;;;;5093435;28;20220;-65
2021/10/30 06:35:10;;;;;;;58.78;3.10;;;2.70;1.00;;;;;;5093670;28;20580;-64
2021/10/30 06:37:38;;;;;;;58.67;3.03;;;2.80;1.00;;;;;;5093395;28;20302;-64
2021/10/30 06:40:07;;;;;;;58.65;3.10;;;2.80;1.00;;;;;;5093558;28;20294;-64
2021/10/30 06:42:34;;;;;;;59.20;3.55;;;2.90;1.00;;;;;;5093678;28;20587;-64
2021/10/30 06:45:01;;;;;;;58.78;3.30;;;2.90;1.00;;;;;;5093660;28;20291;-64
2021/10/30 06:47:30;;;;;;;58.78;3.70;;;3.00;1.00;;;;;;5093356;28;20287;-64
2021/10/30 06:49:58;;;;;;;58.80;3.20;;;3.10;1.00;;;;;;5093405;28;20314;-64
2021/10/30 06:52:26;;;;;;;58.67;3.17;;;3.10;1.00;;;;;;5093286;28;20224;-64
2021/10/30 06:54:53;;;;;;;58.88;3.40;;;3.20;1.00;;;;;;5093169;28;20207;-64
2021/10/30 06:57:20;;;;;;;58.70;2.83;;;3.30;1.00;;;;;;5093214;28;20295;-64
2021/10/30 06:59:47;;;;;;;59.10;3.92;;;3.40;1.00;;;;;;5093220;28;20243;-64
2021/10/30 07:02:14;;;;;;;58.70;3.40;;;3.60;1.00;;;;;;5093263;28;20236;-64
2021/10/30 07:04:42;;;;;;;58.30;3.05;;;3.70;1.00;;;;;;5092984;28;20725;-64
2021/10/30 07:07:09;;;;;;;58.60;3.10;;;3.80;1.00;;;;;;5092713;28;20204;-64
2021/10/30 07:09:35;;;;;;;58.90;3.10;;;4.00;1.00;;;;;;5092812;28;20220;-64
2021/10/30 07:12:02;;;;;;;58.78;3.25;;;4.10;1.00;;;;;;5093075;28;20228;-64
2021/10/30 07:14:29;;;;;;;58.58;2.85;;;4.20;1.00;;;;;;5093108;28;20291;-65
2021/10/30 07:16:57;;;;;;;58.78;3.03;;;4.40;1.00;;;;;;5092497;28;20265;-64
2021/10/30 07:19:24;;;;;;;58.67;3.50;;;4.60;1.00;;;;;;5092793;28;20220;-65
2021/10/30 07:21:52;;;;;;;58.53;3.00;;;4.70;1.00;;;;;;5092722;28;20258;-64
2021/10/30 07:24:19;;;;;;;58.47;3.13;;;4.90;1.00;;;;;;5092671;28;20535;-65
2021/10/30 07:26:47;;;;;;;58.17;2.90;;;5.10;1.00;;;;;;5092536;28;20295;-64
2021/10/30 07:29:14;;;;;;;58.38;2.88;;;5.30;1.00;;;;;;5092716;28;20211;-65
2021/10/30 07:31:41;;;;;;;58.53;3.20;;;5.40;1.00;;;;;;5092705;28;20204;-64
2021/10/30 07:34:08;;;;;;;58.38;2.95;;;5.60;1.00;;;;;;5092474;28;20256;-64
2021/10/30 07:36:35;;;;;;;58.17;2.95;;;5.70;1.00;;;;;;5092108;28;20206;-64
2021/10/30 07:39:03;;;;;;;58.55;2.90;;;5.90;1.00;;;;;;5092732;28;20208;-64
2021/10/30 07:41:30;;;;;;;59.30;3.42;;;6.10;1.00;;;;;;5092509;28;20609;-65
2021/10/30 07:43:57;;;;;;;58.47;2.97;;;6.30;1.00;;;;;;5091775;28;20243;-65
2021/10/30 07:46:24;;;;;;;58.70;2.90;;;6.40;1.00;;;;;;5092119;28;20291;-65
2021/10/30 07:48:52;;;;;;;58.65;3.00;;;6.60;1.00;;;;;;5092374;28;20216;-65
2021/10/30 07:51:19;;;;;;;58.80;3.15;;;6.70;1.00;;;;;;5092347;28;20224;-64
2021/10/30 07:53:46;;;;;;;58.38;2.92;;;6.80;1.00;;;;;;5092134;28;20228;-64
2021/10/30 07:56:15;;;;;;;58.60;3.30;;;7.00;1.00;;;;;;5091824;28;20736;-65
2021/10/30 07:58:42;;;;;;;58.60;3.20;;;7.10;1.00;;;;;;5092150;28;20211;-65
2021/10/30 08:01:09;;;;;;;58.67;2.97;;;7.20;1.00;;;;;;5091995;28;20232;-65
2021/10/30 08:03:37;;;;;;;58.47;2.97;;;7.30;1.00;;;;;;5092066;28;20232;-64
2021/10/30 08:06:04;;;;;;;58.45;3.17;;;7.40;1.00;;;;;;5091765;28;20205;-65
2021/10/30 08:08:32;;;;;;;58.88;3.40;;;7.50;1.00;;;;;;5092194;28;20204;-65
2021/10/30 08:10:59;;;;;;;58.23;2.80;;;7.70;1.00;;;;;;5091926;28;20259;-65
2021/10/30 08:13:28;;;;;;;58.47;3.20;;;7.80;1.00;;;;;;5092035;28;20485;-65
2021/10/30 08:15:54;;;;;;;58.38;2.63;;;8.00;1.00;;;;;;5091694;28;20206;-64
2021/10/30 08:18:21;;;;;;;58.40;2.90;;;8.10;1.00;;;;;;5091798;28;20228;-65
2021/10/30 08:20:48;;;;;;;58.57;3.20;;;8.30;1.00;;;;;;5092039;28;20227;-65
2021/10/30 08:23:15;;;;;;;58.43;3.20;;;8.40;1.00;;;;;;5091896;28;20478;-65
2021/10/30 08:25:42;;;;;;;58.40;2.87;;;8.50;1.00;;;;;;5091878;28;20522;-64
2021/10/30 08:28:09;;;;;;;58.70;3.20;;;8.70;1.00;;;;;;5091883;28;20536;-65
2021/10/30 08:30:37;;;;;;;58.63;3.33;;;8.80;1.00;;;;;;5091727;28;20547;-64
2021/10/30 08:33:04;;;;;;;58.27;2.70;;;8.80;1.00;;;;;;5091631;28;20484;-65
2021/10/30 08:35:31;;;;;;;58.87;3.83;;;8.80;1.00;;;;;;5091351;28;20486;-65
2021/10/30 08:37:58;;;;;;;58.50;3.00;;;8.80;1.00;;;;;;5091982;28;20557;-64
2021/10/30 08:40:24;;;;;;;58.80;3.10;;;8.80;1.00;;;;;;5091622;28;20988;-64
2021/10/30 08:42:52;;;;;;;58.07;2.70;;;8.90;1.00;;;;;;5091817;28;20483;-65
2021/10/30 08:45:19;;;;;;;58.27;2.77;;;9.00;1.00;;;;;;5091482;28;20481;-65
2021/10/30 08:47:49;;;;;;;58.20;2.80;;;9.10;1.00;;;;;;5091668;28;20451;-65
2021/10/30 08:50:16;;;;;;;58.27;2.87;;;9.20;1.00;;;;;;5091654;28;21028;-65
2021/10/30 08:52:43;;;;;;;58.13;2.70;;;9.30;1.00;;;;;;5091649;28;20475;-64
2021/10/30 08:55:10;;;;;;;58.27;2.80;;;9.50;1.00;;;;;;5093487;28;20476;-65
2021/10/30 08:57:38;;;;;;;58.37;3.00;;;9.70;1.00;;;;;;5095348;28;20535;-64
2021/10/30 09:00:19;;;;;;;58.20;3.00;;;9.90;1.00;;;;;;5095443;28;20495;-65
2021/10/30 09:02:55;;;;;;;58.33;2.80;;;10.00;1.00;;;;;;5095602;28;20478;-65
2021/10/30 09:05:24;;;;;;;58.03;2.80;;;10.10;1.00;;;;;;5095288;28;20959;-65
2021/10/30 09:07:52;;;;;;;58.17;2.80;;;10.30;1.00;;;;;;5095362;28;20453;-64
2021/10/30 09:10:22;;;;;;;58.27;3.30;;;10.40;1.00;;;;;;5095136;28;20471;-65
2021/10/30 09:12:51;;;;;;;58.07;2.73;;;10.50;1.00;;;;;;5095400;28;20482;-65
2021/10/30 09:15:19;;;;;;;58.13;2.70;;;10.50;1.00;;;;;;5095271;28;20452;-65
2021/10/30 09:17:49;;;;;;;58.30;3.10;;;10.60;1.00;;;;;;5095186;28;20808;-65
2021/10/30 09:20:16;;;;;;;58.73;2.97;;;10.60;1.00;;;;;;5095457;28;20556;-64
2021/10/30 09:22:54;;;;;;;59.40;4.80;;;10.70;1.00;;;;;;5095019;28;20456;-65
2021/10/30 09:25:22;;;;;;;58.60;4.30;;;10.70;1.00;;;;;;5095024;28;20453;-65
2021/10/30 09:27:51;;;;;;;58.40;2.70;;;10.60;1.00;;;;;;5095045;28;20441;-65
2021/10/30 09:30:20;;;;;;;58.37;2.80;;;10.60;1.00;;;;;;5094993;28;20555;-65
2021/10/30 09:33:08;;;;;;;58.90;3.00;;;10.50;1.00;;;;;;5094819;28;20576;-65
2021/10/30 09:35:41;;;;;;;58.07;2.93;;;10.50;1.00;;;;;;5094432;28;20960;-65
2021/10/30 09:38:10;;;;;;;58.37;3.20;;;10.50;1.00;;;;;;5095054;28;20446;-65
2021/10/30 09:40:37;;;;;;;58.47;2.73;;;10.50;1.00;;;;;;5094610;28;20469;-65
2021/10/30 09:43:12;;;;;;;58.07;2.80;;;10.50;1.00;;;;;;5094634;28;20967;-65
2021/10/30 09:45:42;;;;;;;58.23;2.73;;;10.50;1.00;;;;;;5094208;28;20897;-65
2021/10/30 09:48:11;;;;;;;58.17;2.70;;;10.50;1.00;;;;;;5094813;28;20445;-65
2021/10/30 09:50:38;;;;;;;58.27;2.80;;;10.50;1.00;;;;;;5094595;28;20553;-65
2021/10/30 09:53:26;;;;;;;58.07;3.00;;;10.50;1.00;;;;;;5094580;28;20486;-65
2021/10/30 09:55:54;;;;;;;58.57;3.10;;;10.50;1.00;;;;;;5094194;28;20474;-65
2021/10/30 09:58:32;;;;;;;59.27;2.90;;;10.40;1.00;;;;;;5094234;28;21004;-65
2021/10/30 10:01:01;;;;;;;59.00;4.20;;;10.40;1.00;;;;;;5094145;28;20563;-65
2021/10/30 10:03:31;;;;;;;58.23;2.63;;;10.30;1.00;;;;;;5094471;28;20456;-64
2021/10/30 10:06:00;;;;;;;58.17;2.70;;;10.20;1.00;;;;;;5093321;28;20452;-64
2021/10/30 10:08:28;;;;;;;58.10;2.70;;;10.20;1.00;;;;;;5094185;28;21014;-65
2021/10/30 10:10:55;;;;;;;58.17;2.70;;;10.10;1.00;;;;;;5094003;28;20476;-65
2021/10/30 10:13:23;;;;;;;58.10;2.80;;;10.10;1.00;;;;;;5094250;28;20871;-65
2021/10/30 10:15:51;;;;;;;58.27;3.00;;;10.00;1.00;;;;;;5093722;28;20964;-64
2021/10/30 10:18:18;;;;;;;58.50;3.07;;;10.00;1.00;;;;;;5094089;28;20810;-64
2021/10/30 10:20:48;;;;;;;58.40;3.00;;;10.00;1.00;;;;;;5093922;28;20501;-65
2021/10/30 10:23:15;;;;;;;65.40;3.93;;;10.00;1.00;;;;;;5093788;28;20451;-64
2021/10/30 10:25:50;;;;;;;58.40;3.33;;;10.00;1.00;;;;;;5093766;28;20444;-64
2021/10/30 10:28:29;;;;;;;58.07;2.70;;;10.00;1.00;;;;;;5094036;28;20453;-65
2021/10/30 10:31:01;;;;;;;58.40;3.10;;;10.00;1.00;;;;;;5093714;28;20468;-65
2021/10/30 10:33:29;;;;;;;58.57;3.13;;;10.00;1.00;;;;;;5093650;28;20520;-64
2021/10/30 10:36:28;;;;;;;58.07;2.80;;;10.00;1.00;;;;;;5093503;28;20448;-65
2021/10/30 10:39:14;;;;;;;58.37;2.80;;;10.00;1.00;;;;;;5093571;28;20485;-64
2021/10/30 10:42:03;;;;;;;58.07;2.60;;;10.00;1.00;;;;;;5093623;28;20523;-65
2021/10/30 10:45:02;;;;;;;58.07;2.80;;;10.10;1.00;;;;;;5093792;28;20814;-65
2021/10/30 10:48:06;;;;;;;58.80;2.90;;;10.10;1.00;;;;;;5093260;28;20448;-65
2021/10/30 10:50:44;;;;;;;58.57;3.10;;;10.10;1.00;;;;;;5093216;28;20975;-65
2021/10/30 10:53:29;;;;;;;63.17;4.27;;;10.10;1.00;;;;;;5093477;28;20481;-64
2021/10/30 10:56:16;;;;;;;58.13;2.73;;;10.20;1.00;;;;;;5092192;28;20454;-65
2021/10/30 10:59:14;;;;;;;58.37;2.97;;;10.20;1.00;;;;;;5093157;28;20451;-64
2021/10/30 11:02:15;;;;;;;58.30;2.97;;;10.20;1.00;;;;;;5093160;28;20539;-65
2021/10/30 11:05:02;;;;;;;58.13;2.73;;;10.20;1.00;;;;;;5093149;28;20448;-65
2021/10/30 11:07:29;;;;;;;58.30;3.30;;;10.30;1.00;;;;;;5092743;28;20559;-64
2021/10/30 11:10:01;;;;;;;58.50;3.40;;;10.30;1.00;;;;;;5092916;28;20473;-65
2021/10/30 11:12:29;;;;;;;58.07;2.70;;;10.30;1.00;;;;;;5092911;28;20542;-64
2021/10/30 11:15:05;;;;;;;58.30;2.80;;;10.30;1.00;;;;;;5092869;28;20778;-65
2021/10/30 11:17:37;;;;;;;58.47;3.53;;;10.30;1.00;;;;;;5092062;28;20444;-64
2021/10/30 11:20:14;;;;;;;57.97;2.80;;;10.30;1.00;;;;;;5092313;28;20462;-64
2021/10/30 11:22:59;;;;;;;57.97;2.60;;;10.20;1.00;;;;;;5092936;28;20453;-64
2021/10/30 11:25:28;;;;;;;58.23;2.90;;;10.20;1.00;;;;;;5092404;28;20489;-65
2021/10/30 11:27:55;;;;;;;58.23;2.73;;;10.20;1.00;;;;;;5092618;28;20484;-64
2021/10/30 11:30:35;;;;;;;58.13;2.93;;;10.20;1.00;;;;;;5092766;28;20556;-65
2021/10/30 11:33:24;;;;;;;57.93;2.83;;;10.20;1.00;;;;;;5092444;28;20444;-65
2021/10/30 11:36:04;;;;;;;58.30;3.20;;;10.20;1.00;;;;;;5092313;28;20446;-65
2021/10/30 11:38:32;;;;;;;58.20;2.70;;;10.20;1.00;;;;;;5092405;28;20457;-65
2021/10/30 11:41:03;;;;;;;58.10;2.70;;;10.20;1.00;;;;;;5092529;28;20473;-65
2021/10/30 11:43:31;;;;;;;58.17;2.60;;;10.20;1.00;;;;;;5092587;28;20535;-65
2021/10/30 11:45:59;;;;;;;57.93;2.70;;;10.20;1.00;;;;;;5092079;28;20445;-65
2021/10/30 11:48:37;;;;;;;57.97;2.80;;;10.30;1.00;;;;;;5092432;28;20471;-65
2021/10/30 11:51:04;;;;;;;58.07;2.70;;;10.30;1.00;;;;;;5092240;28;20518;-65
2021/10/30 11:53:32;;;;;;;58.20;2.80;;;10.30;1.00;;;;;;5092364;28;20572;-65
2021/10/30 11:56:01;;;;;;;58.10;2.80;;;10.40;1.00;;;;;;5091852;28;20537;-64
2021/10/30 11:58:45;;;;;;;57.97;2.80;;;10.40;1.00;;;;;;5092322;28;20454;-64
2021/10/30 12:01:23;;;;;;;58.17;2.93;;;10.30;1.00;;;;;;5091777;28;20481;-64
2021/10/30 12:03:51;;;;;;;58.30;3.60;;;10.30;1.00;;;;;;5092193;28;20929;-65
2021/10/30 12:06:19;;;;;;;58.50;3.00;;;10.20;1.00;;;;;;5091803;28;21001;-65
2021/10/30 12:08:46;;;;;;;57.93;2.70;;;10.20;1.00;;;;;;5092133;28;20481;-65
2021/10/30 12:11:13;;;;;;;58.13;2.80;;;10.10;1.00;;;;;;5091932;28;20472;-64
2021/10/30 12:13:46;;;;;;;59.10;3.63;;;10.10;1.00;;;;;;5091725;28;20513;-65
2021/10/30 12:16:13;;;;;;;58.20;2.60;;;9.90;1.00;;;;;;5091830;28;20467;-65
2021/10/30 12:18:41;;;;;;;58.37;2.77;;;9.90;1.00;;;;;;5092101;28;20531;-65
2021/10/30 12:21:10;;;;;;;59.37;3.20;;;9.80;1.00;;;;;;5091826;28;20480;-65
2021/10/30 12:23:54;;;;;;;58.27;3.07;;;9.80;1.00;;;;;;5092020;28;20444;-65
2021/10/30 12:26:21;;;;;;;58.37;2.77;;;9.90;1.00;;;;;;5091568;28;20446;-65
2021/10/30 12:28:49;;;;;;;58.37;2.90;;;9.90;1.00;;;;;;5092146;28;20455;-65
2021/10/30 12:31:30;;;;;;;58.23;2.80;;;10.00;1.00;;;;;;5095637;28;20455;-65
2021/10/30 12:33:58;;;;;;;61.37;3.60;;;10.00;1.00;;;;;;5095964;28;20485;-66
2021/10/30 12:36:28;;;;;;;58.83;3.90;;;10.00;1.00;;;;;;5096145;28;20452;-65
2021/10/30 12:38:55;;;;;;;58.40;3.13;;;10.00;1.00;;;;;;5095896;28;20539;-65
2021/10/30 12:41:29;;;;;;;59.00;4.13;;;10.00;1.00;;;;;;5095950;28;20469;-65
2021/10/30 12:44:02;;;;;;;58.27;2.90;;;10.00;1.00;;;;;;5095891;28;20483;-66
2021/10/30 12:46:50;;;;;;;58.17;3.30;;;10.00;1.00;;;;;;5095414;28;20452;-65
2021/10/30 12:49:21;;;;;;;58.40;2.90;;;10.00;1.00;;;;;;5095654;28;20450;-65
2021/10/30 12:51:56;;;;;;;58.27;3.00;;;10.00;1.00;;;;;;5095688;28;20952;-65
2021/10/30 12:54:24;;;;;;;58.53;3.27;;;10.10;1.00;;;;;;5095862;28;20567;-65
2021/10/30 12:56:52;;;;;;;58.27;3.10;;;10.20;1.00;;;;;;5095235;28;20949;-65
2021/10/30 12:59:23;;;;;;;58.37;3.00;;;10.20;1.00;;;;;;5095404;28;20521;-65
2021/10/30 13:01:51;;;;;;;58.27;2.90;;;10.20;1.00;;;;;;5095842;28;20470;-65
2021/10/30 13:04:28;;;;;;;58.90;3.30;;;10.20;1.00;;;;;;5095589;28;20454;-65
2021/10/30 13:07:00;;;;;;;58.37;3.50;;;10.10;1.00;;;;;;5095282;28;20446;-66